Rechercher aéroport 
image banner adimage banner adimage banner ad
image banner ad

KTVL - Lake Tahoe

Situé à South Lake Tahoe, United States

ICAO - TVL, IATA - TVL

Données fournies par Airmate  

Information générale

Coordonnées: N38°53'38" W119°59'43"
Élévation : 6268 feet MSL.
Variation magnétique : 16° East
Voir autres Aéroports à California

Données opérationnelles

Special qualification required
Heure actuelle UTC:
Heure actuelle locale:
Météo
METAR: KTVL 291353Z AUTO 19003KT 10SM CLR 08/04 A3031 RMK AO2 SLP211 T00830044
TAF: KTVL 291120Z 2912/3012 18003KT P6SM FEW150 FM292000 04006KT P6SM BKN080 PROB30 2921/3002 6SM TSRA BKN040CB FM300200 19003KT P6SM SCT100 BKN180
Voir NOTAMs / SUP AIP / TFR affectant cet aéroport [VIEW]
Fréquences de communication: [VIEW]

Pistes:

Identifiant RWYQFULongueur (ft)Largeur (ft)SurfaceLDA (ft)
18193°8541100ASPH7017
3613°8541100ASPH5708

Coordonnées de l'aéroport

Adresse: South Lake Tahoe United States

Autres services d'aviation

Écoles de pilotage

Pacific North Helicopters

Pacific North Helicopters
sindre@pnh-us.com+1(530)544-2211

Vue satellite de KTVL